Time;durP1;ratioP1;P1;durP2;ratioP2;P2;SDS_P1;SDS_P2;PMS_P1;PMS_P2;Temp;Humidity;BMP_temperature;BMP_pressure;BME280_temperature;BME280_humidity;BME280_pressure;Samples;Min_cycle;Max_cycle;Signal;HPM_P1;HPM_P2
2022/03/06 00:03:09;;;;;;;12.15;5.38;;;7.00;88.60;;;;;;10484078;28;20028;-65
2022/03/06 00:08:10;;;;;;;11.93;5.68;;;6.90;88.50;;;;;;10466590;28;20016;-62
2022/03/06 00:13:11;;;;;;;11.02;5.63;;;6.90;88.50;;;;;;10486706;28;20094;-62
2022/03/06 00:18:12;;;;;;;8.98;4.80;;;6.90;88.50;;;;;;10487241;28;20029;-62
2022/03/06 00:23:13;;;;;;;10.80;5.53;;;6.90;88.40;;;;;;10485033;28;20025;-64
2022/03/06 00:28:14;;;;;;;11.55;5.38;;;6.90;88.40;;;;;;10482944;28;20021;-64
2022/03/06 00:33:14;;;;;;;10.90;5.07;;;6.90;88.40;;;;;;10486766;28;20109;-60
2022/03/06 00:38:15;;;;;;;11.93;5.57;;;6.80;88.30;;;;;;10487099;28;20049;-60
2022/03/06 00:43:17;;;;;;;11.32;6.28;;;6.80;88.30;;;;;;10486356;28;20059;-61
2022/03/06 00:48:17;;;;;;;11.05;6.00;;;6.80;88.40;;;;;;10486870;28;20119;-64
2022/03/06 00:53:18;;;;;;;11.75;5.85;;;7.10;88.50;;;;;;10479113;28;20543;-64
2022/03/06 00:58:19;;;;;;;12.65;5.80;;;6.80;88.40;;;;;;10481296;28;20115;-64
2022/03/06 01:03:21;;;;;;;13.98;6.05;;;6.80;88.40;;;;;;10477766;28;20029;-61
2022/03/06 01:08:22;;;;;;;12.98;6.25;;;6.70;88.30;;;;;;10485616;28;20070;-63
2022/03/06 01:13:23;;;;;;;12.50;6.30;;;6.70;88.40;;;;;;10483772;28;20564;-64
2022/03/06 01:18:24;;;;;;;9.75;5.35;;;6.70;88.30;;;;;;10474633;28;20454;-64
2022/03/06 01:23:25;;;;;;;11.88;6.05;;;6.70;88.30;;;;;;10468830;28;20047;-63
2022/03/06 01:28:26;;;;;;;11.27;6.50;;;6.70;88.90;;;;;;10485370;28;20393;-61
2022/03/06 01:33:26;;;;;;;12.98;6.35;;;6.70;88.40;;;;;;10476833;28;20044;-61
2022/03/06 01:38:27;;;;;;;12.68;6.25;;;6.60;88.30;;;;;;10490747;28;20049;-63
2022/03/06 01:43:28;;;;;;;10.93;6.32;;;6.80;88.40;;;;;;10493697;28;20021;-64
2022/03/06 01:48:29;;;;;;;10.68;6.25;;;6.60;88.40;;;;;;10493012;28;20130;-62
2022/03/06 01:53:29;;;;;;;10.70;5.95;;;6.60;88.40;;;;;;10485374;28;20039;-63
2022/03/06 01:58:30;;;;;;;12.73;6.13;;;6.60;88.40;;;;;;10486375;28;20410;-59
2022/03/06 02:03:31;;;;;;;10.25;6.05;;;6.60;88.40;;;;;;10485507;28;20331;-59
2022/03/06 02:08:31;;;;;;;11.10;6.65;;;6.50;88.30;;;;;;10491012;28;20074;-61
2022/03/06 02:13:32;;;;;;;10.68;6.35;;;6.50;88.30;;;;;;10466165;28;20357;-61
2022/03/06 02:18:33;;;;;;;11.68;6.25;;;6.50;88.30;;;;;;10480291;28;20116;-61
2022/03/06 02:23:33;;;;;;;12.88;6.53;;;6.50;88.30;;;;;;10476822;28;20029;-60
2022/03/06 02:28:35;;;;;;;13.40;7.15;;;6.50;88.40;;;;;;10491562;28;20032;-61
2022/03/06 02:33:36;;;;;;;11.98;6.07;;;6.40;88.40;;;;;;10489255;28;20043;-61
2022/03/06 02:38:36;;;;;;;10.38;5.82;;;6.50;88.40;;;;;;10491291;28;20563;-60
2022/03/06 02:43:37;;;;;;;10.10;6.13;;;6.50;88.40;;;;;;10491151;28;20025;-61
2022/03/06 02:48:38;;;;;;;10.27;6.40;;;6.40;88.40;;;;;;10490131;28;20020;-60
2022/03/06 02:53:38;;;;;;;10.55;6.25;;;6.40;88.40;;;;;;10477060;28;20132;-61
2022/03/06 02:58:39;;;;;;;11.27;6.45;;;6.40;88.50;;;;;;10482161;28;20107;-58
2022/03/06 03:03:43;;;;;;;10.27;5.20;;;6.40;88.50;;;;;;10485648;28;20398;-59
2022/03/06 03:08:46;;;;;;;10.48;6.22;;;6.40;88.50;;;;;;10487094;28;20323;-61
2022/03/06 03:13:47;;;;;;;10.73;6.55;;;6.40;88.60;;;;;;10489723;28;20044;-60
2022/03/06 03:18:47;;;;;;;9.82;5.55;;;6.40;88.60;;;;;;10476623;28;20037;-62
2022/03/06 03:23:48;;;;;;;11.65;6.05;;;6.40;88.60;;;;;;10476177;28;20055;-64
2022/03/06 03:28:49;;;;;;;12.70;6.60;;;6.30;88.60;;;;;;10487219;28;20029;-63
2022/03/06 03:33:49;;;;;;;13.93;6.75;;;6.30;88.60;;;;;;10482341;28;20067;-64
2022/03/06 03:38:50;;;;;;;11.63;6.40;;;6.30;88.60;;;;;;10489422;28;20090;-64
2022/03/06 03:43:52;;;;;;;12.20;5.93;;;6.30;88.60;;;;;;10488084;28;20395;-64
2022/03/06 03:48:52;;;;;;;8.15;5.75;;;6.30;88.70;;;;;;10487258;28;20036;-61
2022/03/06 03:53:53;;;;;;;11.88;6.40;;;6.30;88.70;;;;;;10482409;28;20040;-61
2022/03/06 03:58:54;;;;;;;12.80;5.93;;;6.30;88.80;;;;;;10477291;28;20014;-64
2022/03/06 04:03:55;;;;;;;9.23;5.60;;;6.20;88.70;;;;;;10484492;28;20028;-64
2022/03/06 04:08:56;;;;;;;10.18;6.22;;;6.20;88.70;;;;;;10488022;28;20124;-63
2022/03/06 04:13:56;;;;;;;10.65;5.90;;;6.20;88.90;;;;;;10487491;28;20043;-63
2022/03/06 04:18:57;;;;;;;11.70;6.00;;;6.20;88.80;;;;;;10461024;28;20070;-62
2022/03/06 04:23:58;;;;;;;9.57;5.93;;;6.20;88.90;;;;;;10479670;28;20318;-60
2022/03/06 04:28:59;;;;;;;9.05;5.63;;;6.20;88.90;;;;;;10485062;28;20021;-61
2022/03/06 04:34:00;;;;;;;12.00;5.70;;;6.20;89.50;;;;;;10487167;28;20032;-62
2022/03/06 04:39:01;;;;;;;10.45;5.85;;;6.30;89.00;;;;;;10486351;28;20044;-64
2022/03/06 04:44:02;;;;;;;10.77;5.75;;;6.10;89.00;;;;;;10486125;28;20090;-64
2022/03/06 04:49:03;;;;;;;9.52;5.00;;;6.10;89.10;;;;;;10483249;28;20075;-59
2022/03/06 04:54:05;;;;;;;9.20;4.82;;;6.10;89.10;;;;;;10481725;28;20127;-61
2022/03/06 04:59:06;;;;;;;12.35;5.97;;;6.10;89.70;;;;;;10474058;28;20071;-64
2022/03/06 05:04:07;;;;;;;8.63;5.20;;;6.10;89.10;;;;;;10484538;28;20188;-60
2022/03/06 05:09:07;;;;;;;12.52;5.55;;;6.20;89.20;;;;;;10485884;28;20032;-62
2022/03/06 05:14:09;;;;;;;8.90;5.40;;;6.10;89.20;;;;;;10485308;28;20313;-63
2022/03/06 05:19:09;;;;;;;8.90;5.07;;;6.40;89.40;;;;;;10472510;28;20116;-63
2022/03/06 05:24:10;;;;;;;8.52;5.32;;;6.00;89.20;;;;;;10472005;28;20029;-60
2022/03/06 05:29:11;;;;;;;7.50;4.80;;;6.00;89.20;;;;;;10483132;28;20063;-61
2022/03/06 05:34:11;;;;;;;8.38;5.13;;;6.00;89.80;;;;;;10478128;28;20052;-59
2022/03/06 05:39:12;;;;;;;8.52;5.00;;;6.00;89.30;;;;;;10485302;28;20036;-64
2022/03/06 05:44:13;;;;;;;8.77;5.35;;;6.00;89.30;;;;;;10485154;28;20047;-61
2022/03/06 05:49:14;;;;;;;8.88;4.90;;;6.00;89.40;;;;;;10480025;28;20157;-59
2022/03/06 05:54:15;;;;;;;7.90;4.82;;;6.00;89.40;;;;;;10481200;28;20181;-63
2022/03/06 05:59:15;;;;;;;6.95;4.65;;;6.00;89.40;;;;;;10470743;28;20162;-63
2022/03/06 06:04:16;;;;;;;8.40;4.53;;;5.90;89.50;;;;;;10483351;28;20037;-63
2022/03/06 06:09:18;;;;;;;8.18;4.95;;;5.90;89.50;;;;;;10469267;28;20024;-59
2022/03/06 06:14:18;;;;;;;9.52;4.38;;;5.90;89.50;;;;;;10482969;28;20512;-64
2022/03/06 06:19:19;;;;;;;8.38;4.28;;;5.90;89.50;;;;;;10470078;28;20158;-60
2022/03/06 06:24:20;;;;;;;6.47;4.00;;;5.90;89.50;;;;;;10473027;28;20096;-64
2022/03/06 06:29:21;;;;;;;8.18;4.30;;;6.10;89.60;;;;;;10488337;28;20414;-62
2022/03/06 06:34:21;;;;;;;6.32;3.83;;;5.90;89.50;;;;;;10490275;28;20079;-64
2022/03/06 06:39:22;;;;;;;7.18;4.43;;;5.90;89.50;;;;;;10490230;28;20045;-64
2022/03/06 06:44:23;;;;;;;6.50;3.63;;;5.90;89.50;;;;;;10464559;28;20025;-63
2022/03/06 06:49:23;;;;;;;7.50;4.03;;;5.90;89.40;;;;;;10485897;28;20048;-63
2022/03/06 06:54:24;;;;;;;5.82;3.50;;;5.90;89.30;;;;;;10489090;28;20032;-64
2022/03/06 06:59:25;;;;;;;5.90;3.40;;;5.90;89.30;;;;;;10480667;28;20032;-63
2022/03/06 07:04:25;;;;;;;6.72;3.78;;;5.90;89.30;;;;;;10480722;28;20072;-60
2022/03/06 07:09:26;;;;;;;5.55;3.17;;;5.90;89.30;;;;;;10485047;28;20029;-62
2022/03/06 07:14:27;;;;;;;6.50;3.17;;;5.90;89.20;;;;;;10488086;28;20107;-64
2022/03/06 07:19:27;;;;;;;6.28;2.90;;;5.90;89.20;;;;;;10475110;28;20131;-63
2022/03/06 07:24:28;;;;;;;5.57;2.92;;;6.00;89.20;;;;;;10477402;28;20021;-63
2022/03/06 07:29:29;;;;;;;7.70;2.70;;;6.00;89.10;;;;;;10476500;28;20039;-65
2022/03/06 07:34:30;;;;;;;6.57;2.92;;;6.00;89.10;;;;;;10486277;28;20247;-63
2022/03/06 07:39:31;;;;;;;5.07;3.00;;;6.00;89.10;;;;;;10475142;28;20044;-61
2022/03/06 07:44:31;;;;;;;7.93;3.05;;;6.00;89.00;;;;;;10481174;28;20021;-64
2022/03/06 07:49:32;;;;;;;4.72;2.60;;;6.00;89.00;;;;;;10475435;28;20385;-62
2022/03/06 07:54:33;;;;;;;4.47;2.97;;;6.00;89.00;;;;;;10474352;28;20135;-65
2022/03/06 07:59:35;;;;;;;4.97;2.67;;;6.00;88.90;;;;;;10465775;28;20044;-64
2022/03/06 08:04:36;;;;;;;4.90;2.35;;;6.00;88.90;;;;;;10474545;28;20048;-63
2022/03/06 08:09:36;;;;;;;5.43;3.00;;;6.10;88.80;;;;;;10466897;28;20046;-64
2022/03/06 08:14:37;;;;;;;4.30;2.70;;;6.20;88.50;;;;;;10487699;28;20127;-63
2022/03/06 08:19:38;;;;;;;7.57;2.55;;;6.30;88.10;;;;;;10470418;28;20029;-63
2022/03/06 08:24:39;;;;;;;4.40;2.13;;;6.40;87.90;;;;;;10474455;28;20102;-62
2022/03/06 08:29:40;;;;;;;3.72;2.33;;;6.40;87.70;;;;;;10483259;28;20021;-64
2022/03/06 08:34:41;;;;;;;4.05;2.15;;;6.50;87.50;;;;;;10481920;28;20970;-59
2022/03/06 08:39:41;;;;;;;5.03;2.03;;;6.60;87.40;;;;;;10481106;28;20521;-60
2022/03/06 08:44:42;;;;;;;4.03;2.30;;;6.70;87.70;;;;;;10485511;28;20086;-64
2022/03/06 08:49:43;;;;;;;2.70;1.90;;;6.80;87.00;;;;;;10481056;28;20020;-61
2022/03/06 08:54:44;;;;;;;5.07;2.25;;;6.90;86.70;;;;;;10469853;28;20040;-64
2022/03/06 08:59:45;;;;;;;3.72;2.40;;;6.90;86.60;;;;;;10470731;28;20464;-63
2022/03/06 09:04:45;;;;;;;4.45;1.98;;;7.00;86.50;;;;;;10478959;28;20024;-65
2022/03/06 09:09:46;;;;;;;3.22;1.80;;;7.00;86.30;;;;;;10460307;28;20661;-62
2022/03/06 09:14:47;;;;;;;5.05;2.10;;;7.10;86.30;;;;;;10478804;28;20166;-63
2022/03/06 09:19:48;;;;;;;2.47;1.70;;;7.10;86.20;;;;;;10470298;28;20021;-65
2022/03/06 09:24:49;;;;;;;4.10;2.15;;;7.20;86.30;;;;;;10482960;28;20028;-65
2022/03/06 09:29:49;;;;;;;2.50;1.60;;;7.20;86.20;;;;;;10474741;28;20028;-67
2022/03/06 09:34:50;;;;;;;2.65;1.48;;;7.60;86.50;;;;;;10478203;28;20132;-66
2022/03/06 09:39:51;;;;;;;3.60;1.60;;;7.20;86.10;;;;;;10476610;28;20059;-67
2022/03/06 09:44:51;;;;;;;2.85;1.50;;;7.20;86.10;;;;;;10485746;28;20029;-65
2022/03/06 09:49:53;;;;;;;2.38;1.50;;;7.30;86.10;;;;;;10483958;28;20540;-65
2022/03/06 09:54:54;;;;;;;2.72;1.60;;;7.40;86.00;;;;;;10482015;28;20041;-61
2022/03/06 09:59:55;;;;;;;1.85;1.40;;;7.50;85.70;;;;;;10468643;28;20029;-66
2022/03/06 10:04:56;;;;;;;2.67;1.65;;;7.50;85.50;;;;;;10479769;28;20024;-61
2022/03/06 10:09:58;;;;;;;3.17;1.60;;;7.60;85.40;;;;;;10485853;28;20386;-59
2022/03/06 10:15:05;;;;;;;2.63;1.20;;;7.70;85.40;;;;;;10485053;28;20045;-61
2022/03/06 10:20:10;;;;;;;2.78;1.30;;;7.70;85.40;;;;;;10480173;28;20087;-63
2022/03/06 10:25:16;;;;;;;2.30;1.50;;;7.80;85.20;;;;;;10473357;28;20087;-64
2022/03/06 10:30:37;;;;;;;1.95;1.27;;;7.90;85.00;;;;;;10461166;28;20021;-58
2022/03/06 10:35:42;;;;;;;2.85;1.20;;;8.00;84.80;;;;;;10460421;28;20044;-59
2022/03/06 10:40:43;;;;;;;1.73;1.23;;;8.00;84.80;;;;;;10454522;28;20494;-62
2022/03/06 10:45:45;;;;;;;1.60;1.08;;;8.10;84.80;;;;;;10446716;28;20032;-65
2022/03/06 10:50:46;;;;;;;2.42;1.05;;;8.20;84.60;;;;;;10458614;28;20031;-62
2022/03/06 10:55:46;;;;;;;1.38;1.00;;;8.30;85.00;;;;;;10461785;28;20047;-62
2022/03/06 11:00:48;;;;;;;2.15;1.30;;;8.30;84.40;;;;;;10475680;28;20063;-63
2022/03/06 11:05:49;;;;;;;1.67;1.00;;;8.40;84.30;;;;;;10468836;28;20548;-64
2022/03/06 11:10:50;;;;;;;0.98;0.75;;;8.40;84.30;;;;;;10480343;28;20044;-64
2022/03/06 11:15:51;;;;;;;2.72;1.17;;;8.40;84.30;;;;;;10483339;28;20133;-64
2022/03/06 11:20:54;;;;;;;1.88;1.00;;;8.50;84.10;;;;;;10478648;28;20107;-64
2022/03/06 11:26:07;;;;;;;1.92;1.35;;;8.50;83.90;;;;;;10474717;28;20119;-61
2022/03/06 11:31:07;;;;;;;2.22;1.10;;;8.60;83.80;;;;;;10479816;28;20033;-64
2022/03/06 11:36:21;;;;;;;1.83;1.02;;;8.60;83.80;;;;;;10457555;28;20517;-68
2022/03/06 11:41:25;;;;;;;2.08;1.10;;;8.70;84.70;;;;;;10467470;28;20082;-68
2022/03/06 11:46:26;;;;;;;3.85;1.35;;;8.80;84.30;;;;;;10486025;28;20060;-64
2022/03/06 11:51:28;;;;;;;1.55;0.90;;;8.80;84.50;;;;;;10469702;28;20025;-63
2022/03/06 11:56:35;;;;;;;1.00;0.70;;;8.90;85.50;;;;;;10442089;28;20036;-66
2022/03/06 12:01:41;;;;;;;3.95;0.93;;;8.90;86.00;;;;;;10464030;28;20029;-65
2022/03/06 12:06:44;;;;;;;2.00;0.93;;;8.90;86.00;;;;;;10480046;28;20032;-64
2022/03/06 12:11:46;;;;;;;1.15;0.80;;;9.00;86.10;;;;;;10486933;28;20040;-63
2022/03/06 12:17:06;;;;;;;2.03;1.10;;;9.00;86.40;;;;;;10485734;28;20032;-60
2022/03/06 12:22:20;;;;;;;1.35;1.00;;;9.10;86.80;;;;;;10473308;28;20078;-62
2022/03/06 12:27:25;;;;;;;1.25;1.00;;;9.10;86.60;;;;;;10455642;28;20063;-64
2022/03/06 12:32:26;;;;;;;2.28;1.13;;;9.10;86.70;;;;;;10464669;28;20024;-65
2022/03/06 12:37:51;;;;;;;2.40;1.10;;;9.10;86.90;;;;;;10474455;28;20048;-67
2022/03/06 12:43:01;;;;;;;1.77;1.05;;;9.10;88.40;;;;;;10471418;28;20109;-64
2022/03/06 12:48:02;;;;;;;3.05;1.00;;;9.20;88.10;;;;;;10489009;28;20502;-64
2022/03/06 12:53:02;;;;;;;1.58;0.90;;;9.20;87.80;;;;;;10474439;28;20068;-64
2022/03/06 12:58:03;;;;;;;4.10;1.60;;;9.20;88.00;;;;;;10461653;28;20535;-66
2022/03/06 13:03:08;;;;;;;3.03;1.10;;;9.20;88.30;;;;;;10482465;28;20522;-63
2022/03/06 13:08:08;;;;;;;0.93;0.88;;;9.10;88.50;;;;;;10456562;28;20060;-60
2022/03/06 13:13:09;;;;;;;2.22;0.98;;;9.10;88.50;;;;;;10477974;28;20074;-61
2022/03/06 13:18:12;;;;;;;1.55;1.02;;;8.50;88.30;;;;;;10481888;28;20033;-63
2022/03/06 13:23:20;;;;;;;1.48;0.80;;;9.10;88.60;;;;;;10474445;28;20383;-61
2022/03/06 13:28:20;;;;;;;3.42;1.30;;;9.10;88.40;;;;;;10483142;28;20029;-61
2022/03/06 13:33:21;;;;;;;2.35;0.88;;;9.10;88.50;;;;;;10486296;28;20033;-64
2022/03/06 13:38:26;;;;;;;2.25;0.98;;;9.10;88.40;;;;;;10489039;28;20469;-64
2022/03/06 13:43:36;;;;;;;1.92;0.82;;;9.20;88.20;;;;;;10493737;28;20035;-64
2022/03/06 13:48:37;;;;;;;1.45;0.85;;;9.20;88.10;;;;;;10485940;28;20517;-62
2022/03/06 13:53:52;;;;;;;0.93;0.70;;;9.20;88.10;;;;;;10485742;28;20035;-63
2022/03/06 13:58:53;;;;;;;1.80;1.13;;;9.10;88.30;;;;;;10483346;28;20099;-65
2022/03/06 14:04:05;;;;;;;1.65;1.00;;;9.10;88.60;;;;;;10489513;28;20024;-65
2022/03/06 14:09:26;;;;;;;1.95;0.95;;;9.10;88.80;;;;;;10485189;28;20024;-61
2022/03/06 14:14:37;;;;;;;2.85;1.05;;;9.20;88.90;;;;;;10491705;28;20036;-65
2022/03/06 14:19:38;;;;;;;1.25;0.88;;;9.30;88.70;;;;;;10479452;28;20055;-61
2022/03/06 14:24:39;;;;;;;3.95;1.30;;;9.50;88.50;;;;;;10478466;28;20074;-65
2022/03/06 14:29:41;;;;;;;2.17;0.82;;;9.40;88.50;;;;;;10488571;28;20623;-65
2022/03/06 14:34:42;;;;;;;1.60;0.80;;;9.40;88.70;;;;;;10490965;28;20037;-65
2022/03/06 14:39:43;;;;;;;2.90;1.30;;;9.40;88.70;;;;;;10491587;28;20131;-65
2022/03/06 14:44:43;;;;;;;3.38;1.00;;;9.50;88.70;;;;;;10489949;28;20040;-64
2022/03/06 14:49:44;;;;;;;1.67;0.90;;;9.50;89.20;;;;;;10484378;28;20167;-63
2022/03/06 14:54:45;;;;;;;1.60;0.80;;;9.50;89.30;;;;;;10486160;28;20049;-63
2022/03/06 14:59:46;;;;;;;3.40;1.13;;;9.50;89.60;;;;;;10467588;28;20035;-64
2022/03/06 15:04:46;;;;;;;1.02;0.85;;;9.50;89.60;;;;;;10490786;28;20089;-64
2022/03/06 15:09:47;;;;;;;3.38;0.98;;;9.60;89.40;;;;;;10459872;28;20052;-64
2022/03/06 15:14:48;;;;;;;1.20;0.80;;;9.60;89.30;;;;;;10464555;28;20124;-65
2022/03/06 15:19:48;;;;;;;1.90;1.00;;;9.60;89.60;;;;;;10477666;28;20441;-63
2022/03/06 15:24:49;;;;;;;1.40;1.00;;;9.70;89.60;;;;;;10476188;28;20059;-63
2022/03/06 15:29:50;;;;;;;1.92;1.10;;;9.70;89.50;;;;;;10484744;28;20029;-63
2022/03/06 15:34:50;;;;;;;2.22;0.90;;;9.60;89.70;;;;;;10486132;28;20028;-65
2022/03/06 15:39:51;;;;;;;1.15;0.90;;;9.60;90.00;;;;;;10489140;28;20047;-63
2022/03/06 15:44:52;;;;;;;1.02;0.70;;;9.50;90.00;;;;;;10488471;28;20032;-63
2022/03/06 15:49:53;;;;;;;1.60;1.10;;;9.50;90.10;;;;;;10476929;28;20021;-64
2022/03/06 15:54:54;;;;;;;1.27;0.95;;;9.40;90.20;;;;;;10489305;28;20090;-64
2022/03/06 15:59:55;;;;;;;2.58;1.05;;;9.40;90.60;;;;;;10475976;28;20085;-64
2022/03/06 16:04:56;;;;;;;1.63;1.00;;;9.40;90.30;;;;;;10489865;28;20481;-64
2022/03/06 16:09:56;;;;;;;1.58;0.88;;;9.30;90.30;;;;;;10484056;28;20024;-62
2022/03/06 16:14:57;;;;;;;3.17;1.10;;;9.30;90.40;;;;;;10489554;28;20047;-64
2022/03/06 16:19:58;;;;;;;2.22;1.00;;;9.30;90.40;;;;;;10478623;28;20417;-73
2022/03/06 16:24:58;;;;;;;1.75;1.20;;;9.50;90.50;;;;;;10484508;28;20047;-67
2022/03/06 16:29:59;;;;;;;1.42;1.10;;;9.30;90.50;;;;;;10479704;28;20021;-67
2022/03/06 16:35:01;;;;;;;2.13;1.10;;;9.20;90.40;;;;;;10477441;28;20044;-68
2022/03/06 16:40:03;;;;;;;3.42;1.10;;;9.20;90.40;;;;;;10454983;28;20045;-65
2022/03/06 16:45:05;;;;;;;1.77;1.00;;;9.10;90.40;;;;;;10450828;28;20138;-66
2022/03/06 16:50:06;;;;;;;3.45;1.33;;;9.10;90.40;;;;;;10451501;28;20484;-65
2022/03/06 16:55:07;;;;;;;2.42;1.27;;;9.10;90.40;;;;;;10478457;28;20041;-65
2022/03/06 17:00:09;;;;;;;4.40;1.40;;;9.10;90.40;;;;;;10480558;28;20028;-63
2022/03/06 17:05:10;;;;;;;1.98;1.00;;;9.10;90.40;;;;;;10479271;28;20475;-65
2022/03/06 17:10:11;;;;;;;4.22;1.20;;;9.00;90.40;;;;;;10480999;28;20059;-64
2022/03/06 17:15:12;;;;;;;1.92;1.05;;;9.20;90.50;;;;;;10485662;28;20487;-65
2022/03/06 17:20:12;;;;;;;1.95;1.20;;;8.90;90.40;;;;;;10471668;28;20447;-63
2022/03/06 17:25:14;;;;;;;1.92;1.30;;;8.90;90.40;;;;;;10479293;28;20110;-65
2022/03/06 17:30:14;;;;;;;2.22;1.05;;;8.90;90.40;;;;;;10470159;28;20025;-64
2022/03/06 17:35:15;;;;;;;2.25;1.23;;;8.90;90.40;;;;;;10477932;28;20529;-65
2022/03/06 17:40:18;;;;;;;2.40;1.02;;;8.80;90.40;;;;;;10474845;28;20561;-70
2022/03/06 17:45:19;;;;;;;2.00;1.10;;;8.80;90.40;;;;;;10482474;28;20459;-67
2022/03/06 17:50:19;;;;;;;1.73;1.20;;;8.80;90.40;;;;;;10457195;28;20117;-64
2022/03/06 17:55:20;;;;;;;2.80;1.23;;;8.80;90.40;;;;;;10476568;28;20029;-66
2022/03/06 18:00:21;;;;;;;1.60;1.13;;;8.70;90.40;;;;;;10471232;28;20029;-65
2022/03/06 18:05:22;;;;;;;3.25;1.15;;;8.70;90.40;;;;;;10481665;28;20533;-66
2022/03/06 18:10:23;;;;;;;4.00;1.50;;;8.60;90.30;;;;;;10471748;28;20067;-64
2022/03/06 18:15:24;;;;;;;3.35;1.33;;;8.60;90.30;;;;;;10483745;28;20040;-65
2022/03/06 18:20:25;;;;;;;2.28;1.17;;;8.60;90.30;;;;;;10469678;28;20063;-65
2022/03/06 18:25:27;;;;;;;1.85;1.20;;;8.60;90.30;;;;;;10483350;28;20048;-65
2022/03/06 18:30:28;;;;;;;3.40;1.48;;;8.70;90.30;;;;;;10482823;28;20205;-64
2022/03/06 18:35:29;;;;;;;1.65;1.25;;;8.60;90.30;;;;;;10489538;28;20045;-66
2022/03/06 18:40:29;;;;;;;2.10;1.30;;;8.50;90.20;;;;;;10480285;28;20048;-65
2022/03/06 18:45:30;;;;;;;2.45;1.20;;;8.50;90.20;;;;;;10488800;28;20129;-66
2022/03/06 18:50:31;;;;;;;2.15;1.50;;;8.50;90.20;;;;;;10488610;28;20024;-65
2022/03/06 18:55:31;;;;;;;3.08;1.80;;;8.50;90.20;;;;;;10476901;28;20787;-68
2022/03/06 19:00:32;;;;;;;2.13;1.45;;;8.50;90.20;;;;;;10479309;28;20027;-64
2022/03/06 19:05:33;;;;;;;3.95;1.77;;;8.40;90.10;;;;;;10482789;28;20030;-66
2022/03/06 19:10:34;;;;;;;3.08;1.50;;;8.50;90.40;;;;;;10486278;28;20029;-66
2022/03/06 19:15:35;;;;;;;4.57;1.90;;;8.40;90.10;;;;;;10485705;28;20032;-65
2022/03/06 19:20:40;;;;;;;3.58;2.25;;;8.40;90.20;;;;;;10480253;28;20028;-66
2022/03/06 19:25:40;;;;;;;3.22;1.80;;;8.40;90.20;;;;;;10465679;28;20020;-64
2022/03/06 19:30:41;;;;;;;3.33;1.88;;;8.40;90.20;;;;;;10480075;28;20551;-62
2022/03/06 19:35:42;;;;;;;2.80;1.80;;;8.40;90.20;;;;;;10477187;28;20069;-67
2022/03/06 19:40:45;;;;;;;3.75;2.00;;;8.30;90.20;;;;;;10484341;28;20510;-63
2022/03/06 19:45:47;;;;;;;6.78;2.10;;;8.40;90.20;;;;;;10476784;28;20344;-65
2022/03/06 19:50:48;;;;;;;3.10;1.92;;;8.30;90.20;;;;;;10483533;28;20097;-61
2022/03/06 19:55:48;;;;;;;3.70;2.20;;;8.30;90.20;;;;;;10480565;28;20601;-66
2022/03/06 20:00:49;;;;;;;3.28;2.10;;;8.30;90.20;;;;;;10468861;28;20029;-65
2022/03/06 20:05:50;;;;;;;3.28;1.67;;;8.30;90.20;;;;;;10464348;28;20054;-65
2022/03/06 20:10:50;;;;;;;5.93;1.88;;;8.30;90.20;;;;;;10469016;28;20468;-62
2022/03/06 20:15:51;;;;;;;3.08;1.92;;;8.20;90.20;;;;;;10460371;28;20553;-66
2022/03/06 20:20:52;;;;;;;2.97;1.80;;;8.20;90.30;;;;;;10464866;28;20062;-66
2022/03/06 20:25:52;;;;;;;3.53;2.20;;;8.20;90.30;;;;;;10476852;28;20035;-66
2022/03/06 20:30:53;;;;;;;3.53;1.92;;;8.20;90.30;;;;;;10465968;28;20031;-66
2022/03/06 20:35:54;;;;;;;3.55;1.80;;;8.20;90.30;;;;;;10455731;28;20040;-65
2022/03/06 20:40:54;;;;;;;3.25;1.95;;;8.20;90.30;;;;;;10460845;28;20047;-65
2022/03/06 20:45:57;;;;;;;5.18;2.70;;;8.40;90.30;;;;;;10463283;28;20033;-64
2022/03/06 20:50:58;;;;;;;3.63;2.08;;;8.10;90.30;;;;;;10449133;28;20028;-66
2022/03/06 20:55:58;;;;;;;5.93;1.90;;;8.10;90.30;;;;;;10453916;28;20028;-65
2022/03/06 21:00:59;;;;;;;3.20;1.65;;;8.10;90.30;;;;;;10449957;28;20036;-66
2022/03/06 21:06:00;;;;;;;3.65;1.73;;;8.00;90.30;;;;;;10469763;28;20028;-64
2022/03/06 21:11:01;;;;;;;3.22;1.88;;;8.00;90.30;;;;;;10466151;28;20414;-65
2022/03/06 21:16:01;;;;;;;2.58;1.58;;;8.00;90.30;;;;;;10451960;28;20109;-67
2022/03/06 21:21:02;;;;;;;3.63;1.73;;;8.00;90.30;;;;;;10453337;28;20025;-68
2022/03/06 21:26:05;;;;;;;4.50;2.20;;;8.00;90.30;;;;;;10452470;28;20014;-59
2022/03/06 21:31:05;;;;;;;2.53;1.67;;;7.90;90.30;;;;;;10435157;28;20571;-63
2022/03/06 21:36:06;;;;;;;3.70;2.22;;;7.90;90.30;;;;;;10450759;28;20071;-66
2022/03/06 21:41:07;;;;;;;2.58;1.98;;;7.90;90.30;;;;;;10462877;28;20440;-64
2022/03/06 21:46:08;;;;;;;2.20;1.90;;;7.90;90.30;;;;;;10444624;28;20039;-68
2022/03/06 21:51:08;;;;;;;4.72;2.25;;;7.90;90.30;;;;;;10457183;28;20377;-68
2022/03/06 21:56:09;;;;;;;7.20;1.90;;;7.80;90.30;;;;;;10465302;28;20037;-64
2022/03/06 22:01:10;;;;;;;2.67;1.80;;;7.80;90.30;;;;;;10474646;28;20013;-67
2022/03/06 22:06:11;;;;;;;4.13;1.92;;;7.80;90.30;;;;;;10461121;28;20103;-69
2022/03/06 22:11:12;;;;;;;4.43;2.00;;;7.80;90.30;;;;;;10460793;28;20167;-68
2022/03/06 22:16:13;;;;;;;3.97;2.25;;;7.70;90.20;;;;;;10459983;28;20044;-65
2022/03/06 22:21:14;;;;;;;4.00;2.20;;;7.70;90.20;;;;;;10467893;28;20518;-65
2022/03/06 22:26:15;;;;;;;4.45;2.38;;;7.70;90.20;;;;;;10465816;28;20028;-62
2022/03/06 22:31:17;;;;;;;4.38;2.28;;;7.70;90.20;;;;;;10471036;28;20021;-64
2022/03/06 22:36:18;;;;;;;3.53;2.13;;;7.70;90.20;;;;;;10461024;28;20045;-65
2022/03/06 22:41:19;;;;;;;4.13;2.42;;;7.60;90.20;;;;;;10447202;28;20483;-66
2022/03/06 22:46:20;;;;;;;5.35;2.58;;;7.60;90.20;;;;;;10481710;28;20024;-64
2022/03/06 22:51:20;;;;;;;3.25;2.28;;;7.60;90.20;;;;;;10469746;28;20021;-66
2022/03/06 22:56:21;;;;;;;5.03;2.65;;;7.50;90.10;;;;;;10436283;28;20043;-66
2022/03/06 23:01:25;;;;;;;6.25;2.88;;;7.60;90.20;;;;;;10454356;28;20667;-66
2022/03/06 23:11:45;;;;;;;5.15;2.78;;;7.50;90.10;;;;;;10481538;28;20031;-66
2022/03/06 23:16:46;;;;;;;3.72;2.55;;;7.50;90.10;;;;;;10482030;28;20051;-66
2022/03/06 23:21:47;;;;;;;5.20;2.95;;;7.40;90.10;;;;;;10475947;28;20123;-65
2022/03/06 23:26:48;;;;;;;5.25;3.17;;;7.40;90.10;;;;;;10488377;28;20082;-65
2022/03/06 23:31:49;;;;;;;8.00;3.50;;;7.40;90.10;;;;;;10486152;28;20020;-66
2022/03/06 23:36:51;;;;;;;4.55;2.97;;;7.40;90.10;;;;;;10487535;28;20041;-65
2022/03/06 23:41:52;;;;;;;7.07;3.25;;;7.40;90.10;;;;;;10488150;28;20047;-63
2022/03/06 23:46:53;;;;;;;6.55;3.72;;;7.40;90.00;;;;;;10487255;28;20115;-65
2022/03/06 23:51:54;;;;;;;8.45;3.95;;;7.40;90.00;;;;;;10480798;28;20048;-62
2022/03/06 23:56:55;;;;;;;9.20;4.60;;;7.30;90.00;;;;;;10487449;28;20529;-66
